Data for 02/22/2018

Time Sea-Level Adjusted Pressure Absolute Pressure Temperature Relative Humidity Dew Point   
(mb) (inHg) (mb) (inHg) (C) (F) (%) (C) (F)
00:05 1016 30 846 24.98 -11.8 10.7 62 -17.7 0.1
00:10 1016 30 846 24.98 -12 10.3 62 -17.9 -0.2
00:15 1016 30 846 24.98 -12.3 9.9 62 -18.1 -0.6
00:20 1016 30 846 24.98 -12.2 10 62 -18.1 -0.5
00:25 1017 30.03 846 24.98 -11.9 10.6 61 -18 -0.4
00:30 1017 30.03 846 24.98 -12 10.4 61 -18 -0.4
00:35 1017 30.03 846 24.98 -11.8 10.7 61 -17.9 -0.3
00:40 1017 30.03 846 24.98 -11.6 11.1 60 -18 -0.3
00:45 1017 30.03 846 24.98 -11.4 11.4 59 -18 -0.4
00:50 1017 30.03 846 24.98 -11.8 10.7 61 -18 -0.4
00:55 1017 30.03 846 24.98 -11.9 10.5 60 -18.2 -0.7
01:00 1017 30.03 846 24.98 -11.9 10.6 60 -18.1 -0.6
01:05 1017 30.03 846 24.98 -12 10.4 61 -18 -0.5
01:10 1016 30 846 24.98 -12.3 9.9 62 -18.1 -0.6
01:15 1016 30 846 24.98 -12.4 9.8 62 -18.2 -0.8
01:20 1016 30 846 24.98 -12.5 9.5 62 -18.3 -1
01:25 1016 30 846 24.98 -12.6 9.4 62 -18.4 -1.1
01:30 1016 30 846 24.98 -12.6 9.3 63 -18.3 -0.9
01:35 1016 30 845 24.95 -12.8 9 63 -18.4 -1.1
01:40 1016 30 845 24.95 -13 8.7 64 -18.4 -1.1
01:45 1016 30 845 24.95 -13 8.6 64 -18.4 -1.2
01:50 1016 30 845 24.95 -13.1 8.5 65 -18.4 -1.1
01:55 1016 30 845 24.95 -13.4 8 65 -18.6 -1.5
02:00 1016 30 845 24.95 -13.4 7.8 65 -18.7 -1.6
02:05 1016 30 845 24.95 -13.6 7.6 65 -18.7 -1.7
02:10 1016 30 845 24.95 -13.4 7.8 66 -18.6 -1.4
02:15 1016 30 845 24.95 -13 8.5 64 -18.5 -1.3
02:20 1016 30 845 24.95 -12.7 9.1 63 -18.4 -1.1
02:25 1016 30 845 24.95 -12.5 9.4 61 -18.6 -1.4
02:30 1016 30 845 24.95 -12.6 9.4 62 -18.4 -1.2
02:35 1016 30 845 24.95 -12.6 9.4 62 -18.5 -1.2
02:40 1016 30 845 24.95 -12.5 9.4 61 -18.6 -1.6
02:45 1016 30 845 24.95 -12.1 10.2 59 -18.5 -1.4
02:50 1016 30 845 24.95 -11.8 10.7 58 -18.5 -1.4
02:55 1015 29.97 845 24.95 -11.7 11 57 -18.6 -1.4
03:00 1016 30 845 24.95 -11.4 11.5 56 -18.6 -1.4
03:05 1015 29.97 845 24.95 -11.7 10.9 58 -18.3 -1
03:10 1015 29.97 845 24.95 -12.2 10.1 59 -18.6 -1.5
03:15 1015 29.97 845 24.95 -12.2 10 59 -18.7 -1.7
03:20 1015 29.97 845 24.95 -12 10.4 58 -18.6 -1.5
03:25 1015 29.97 845 24.95 -11.7 11 56 -18.7 -1.6
03:30 1015 29.97 845 24.95 -11.5 11.3 57 -18.5 -1.3
03:35 1015 29.97 845 24.95 -11.5 11.2 57 -18.6 -1.4
03:40 1015 29.97 845 24.95 -11.5 11.3 56 -18.6 -1.4
03:45 1016 30 845 24.95 -11.5 11.4 56 -18.5 -1.3
03:50 1016 30 845 24.95 -11.6 11.2 57 -18.5 -1.4
03:55 1016 30 845 24.95 -11.6 11 57 -18.6 -1.5
04:00 1016 30 845 24.95 -11.8 10.8 57 -18.7 -1.6
04:05 1016 30 845 24.95 -12.1 10.3 58 -18.7 -1.6
04:10 1016 30 845 24.95 -12.3 9.9 59 -18.7 -1.7
04:15 1016 30 845 24.95 -12.6 9.4 60 -18.9 -2
04:20 1016 30 845 24.95 -12.5 9.5 60 -18.8 -1.8
04:25 1016 30 845 24.95 -12.6 9.2 60 -18.8 -1.9
04:30 1016 30 845 24.95 -12.4 9.7 59 -18.8 -1.9
04:35 1016 30 845 24.95 -12.4 9.8 59 -18.8 -1.8
04:40 1016 30 845 24.95 -12.3 9.8 59 -18.8 -1.8
04:45 1016 30 845 24.95 -12.3 9.8 59 -18.7 -1.7
04:50 1016 30 845 24.95 -12.2 10 59 -18.7 -1.7
04:55 1016 30 845 24.95 -12.3 9.9 59 -18.7 -1.6
05:00 1016 30 845 24.95 -12.4 9.6 60 -18.7 -1.7
05:05 1016 30 845 24.95 -12.3 9.8 60 -18.6 -1.5
05:10 1016 30 845 24.95 -12.1 10.3 60 -18.4 -1
05:15 1016 30 845 24.95 -12 10.4 61 -18.2 -0.7
05:20 1016 30 845 24.95 -12 10.3 61 -18.2 -0.7
05:25 1016 30 845 24.95 -12 10.5 59 -18.5 -1.3
05:30 1016 30 845 24.95 -11.6 11.1 58 -18.3 -1
05:35 1016 30 845 24.95 -11.4 11.5 57 -18.2 -0.8
05:40 1016 30 845 24.95 -11.1 12 57 -18.1 -0.6
05:45 1016 30 845 24.95 -10.7 12.7 55 -18.1 -0.7
05:50 1016 30 845 24.95 -10.8 12.6 56 -18 -0.4
05:55 1016 30 845 24.95 -11 12.2 57 -18 -0.3
06:00 1016 30 845 24.95 -11.1 12.1 57 -18 -0.4
06:05 1016 30 845 24.95 -11.1 12 57 -18 -0.4
06:10 1016 30 845 24.95 -11.1 11.9 57 -18 -0.4
06:15 1016 30 845 24.95 -11.1 12 58 -17.9 -0.2
06:20 1016 30 845 24.95 -11.3 11.7 59 -17.8 0
06:25 1016 30 845 24.95 -11.4 11.5 59 -18 -0.3
06:30 1016 30 845 24.95 -11.3 11.6 59 -17.9 -0.2
06:35 1016 30 845 24.95 -11.2 11.9 57 -18.1 -0.5
06:40 1016 30 845 24.95 -10.9 12.3 57 -17.9 -0.1
06:45 1016 30 845 24.95 -10.9 12.3 57 -17.9 -0.2
06:50 1016 30 845 24.95 -10.9 12.5 57 -17.9 -0.2
06:55 1016 30 846 24.98 -11.1 12 58 -17.9 -0.2
07:00 1016 30 846 24.98 -11.3 11.6 59 -17.9 -0.2
07:05 1016 30 846 24.98 -11.3 11.7 59 -17.9 -0.2
07:10 1016 30 846 24.98 -11.3 11.7 59 -17.7 0.1
07:15 1016 30 846 24.98 -11.3 11.8 60 -17.6 0.2
07:20 1016 30 846 24.98 -11.2 11.9 60 -17.4 0.7
07:25 1016 30 846 24.98 -11.1 12 61 -17.3 0.9
07:30 1017 30.03 846 24.98 -11.2 11.8 60 -17.6 0.4
07:35 1017 30.03 846 24.98 -11 12.2 59 -17.6 0.3
07:40 1017 30.03 846 24.98 -10.8 12.6 58 -17.6 0.4
07:45 1017 30.03 846 24.98 -10.5 13.1 56 -17.6 0.3
07:50 1016 30 846 24.98 -10 14 55 -17.4 0.6
07:55 1017 30.03 846 24.98 -9.3 15.2 52 -17.5 0.4
08:00 1016 30 846 24.98 -9.2 15.4 51 -17.6 0.4
08:05 1016 30 846 24.98 -8.6 16.6 49 -17.5 0.4
08:10 1016 30 846 24.98 -7.8 17.9 47 -17.3 0.9
08:15 1016 30 846 24.98 -6.9 19.6 43 -17.4 0.7
08:20 1016 30 846 24.98 -6.5 20.2 43 -17.1 1.2
08:25 1016 30 846 24.98 -6.7 20 44 -16.9 1.5
08:30 1016 30 846 24.98 -6.7 20 45 -16.7 2
08:35 1017 30.03 846 24.98 -6.9 19.5 45 -16.9 1.5
08:40 1017 30.03 846 24.98 -7.1 19.3 46 -16.8 1.8
08:45 1017 30.03 846 24.98 -7.4 18.7 47 -16.9 1.7
08:50 1017 30.03 846 24.98 -7.7 18.2 49 -16.7 1.9
08:55 1017 30.03 846 24.98 -7.7 18.2 49 -16.7 1.9
09:00 1017 30.03 846 24.98 -8.1 17.4 50 -16.9 1.6
09:05 1017 30.03 846 24.98 -8.6 16.5 54 -16.4 2.5
09:10 1017 30.03 846 24.98 -9.4 15.2 53 -17.4 0.7
09:15 1017 30.03 846 24.98 -9.5 14.9 55 -17 1.4
09:20 1017 30.03 846 24.98 -9.5 15 52 -17.5 0.5
09:25 1017 30.03 846 24.98 -8.8 16.2 51 -17.3 0.9
09:30 1017 30.03 846 24.98 -8 17.6 50 -16.8 1.7
09:35 1017 30.03 846 24.98 -8 17.7 49 -16.9 1.6
09:40 1017 30.03 846 24.98 -8.2 17.2 48 -17.4 0.8
09:45 1017 30.03 846 24.98 -7.8 17.9 47 -17.2 1.1
09:50 1017 30.03 846 24.98 -7.4 18.8 47 -16.9 1.5
09:55 1017 30.03 846 24.98 -7.3 18.9 48 -16.4 2.4
10:00 1017 30.03 846 24.98 -7.5 18.6 49 -16.4 2.4
10:05 1017 30.03 846 24.98 -8 17.6 52 -16.1 3
10:10 1017 30.03 846 24.98 -8 17.7 50 -16.6 2.2
10:15 1017 30.03 846 24.98 -8.2 17.2 52 -16.5 2.3
10:20 1017 30.03 846 24.98 -8.6 16.6 54 -16.3 2.7
10:25 1017 30.03 846 24.98 -8.3 17 51 -16.7 2
10:30 1017 30.03 846 24.98 -8.2 17.3 51 -16.7 1.9
10:35 1017 30.03 846 24.98 -8.4 16.9 53 -16.4 2.5
10:40 1017 30.03 846 24.98 -8.2 17.3 52 -16.5 2.3
10:45 1017 30.03 846 24.98 -8.2 17.2 50 -16.9 1.6
10:50 1017 30.03 846 24.98 -8.6 16.5 53 -16.6 2
10:55 1017 30.03 846 24.98 -9.2 15.4 55 -16.7 1.9
11:00 1017 30.03 846 24.98 -9 15.9 55 -16.4 2.4
11:05 1017 30.03 846 24.98 -8.3 17.2 51 -16.8 1.8
11:10 1017 30.03 846 24.98 -8.7 16.4 52 -16.9 1.5
11:15 1017 30.03 846 24.98 -8 17.7 51 -16.5 2.3
11:20 1017 30.03 846 24.98 -7.3 19 49 -16.3 2.7
11:25 1017 30.03 846 24.98 -7.4 18.6 52 -15.7 3.8
11:30 1017 30.03 846 24.98 -7.5 18.4 51 -16.1 3.1
11:35 1017 30.03 846 24.98 -7.4 18.6 51 -15.8 3.5
11:40 1017 30.03 846 24.98 -6.9 19.6 48 -16.1 3
11:45 1017 30.03 846 24.98 -7.3 18.8 49 -16.4 2.5
11:50 1017 30.03 846 24.98 -7.3 18.9 47 -16.7 2
11:55 1017 30.03 846 24.98 -7.3 18.8 48 -16.5 2.3
12:00 1017 30.03 846 24.98 -7.2 19.1 48 -16.4 2.4
12:05 1017 30.03 846 24.98 -6.9 19.5 48 -16.1 3
12:10 1017 30.03 846 24.98 -7.1 19.2 49 -16 3.1
12:15 1017 30.03 846 24.98 -7.6 18.3 51 -16.1 3
12:20 1017 30.03 846 24.98 -7.3 18.9 51 -15.9 3.4
12:25 1017 30.03 846 24.98 -6.6 20.2 46 -16.3 2.6
12:30 1017 30.03 846 24.98 -7.2 19.1 55 -14.8 5.4
12:35 1017 30.03 846 24.98 -7.5 18.5 52 -15.8 3.5
12:40 1017 30.03 846 24.98 -8.2 17.3 56 -15.5 4.2
12:45 1017 30.03 846 24.98 -7.7 18.1 52 -15.9 3.4
12:50 1017 30.03 846 24.98 -7.3 18.9 52 -15.5 4.1
12:55 1016 30 846 24.98 -7.7 18.1 58 -14.7 5.5
13:00 1016 30 846 24.98 -7.5 18.5 53 -15.6 3.9
13:05 1016 30 846 24.98 -8 17.6 56 -15.3 4.5
13:10 1016 30 846 24.98 -7.9 17.7 57 -15 5
13:15 1016 30 846 24.98 -7.2 19.1 52 -15.5 4.1
13:20 1016 30 846 24.98 -7 19.3 55 -14.6 5.7
13:25 1016 30 846 24.98 -6.5 20.3 52 -14.8 5.4
13:30 1016 30 846 24.98 -6.6 20 56 -14.1 6.6
13:35 1016 30 846 24.98 -6.8 19.8 54 -14.7 5.5
13:40 1016 30 846 24.98 -6.6 20.1 52 -14.9 5.1
13:45 1016 30 846 24.98 -6.5 20.3 54 -14.3 6.2
13:50 1016 30 846 24.98 -6.4 20.5 53 -14.6 5.8
13:55 1016 30 846 24.98 -7 19.5 56 -14.3 6.2
14:00 1016 30 846 24.98 -7.1 19.3 56 -14.5 5.9
14:05 1016 30 846 24.98 -6.5 20.2 54 -14.3 6.2
14:10 1016 30 846 24.98 -6.6 20.2 55 -14.2 6.5
14:15 1016 30 846 24.98 -6.8 19.8 57 -13.9 7
14:20 1016 30 846 24.98 -6.7 19.9 55 -14.3 6.2
14:25 1016 30 846 24.98 -6.8 19.8 56 -14.2 6.4
14:30 1016 30 846 24.98 -7.3 18.9 58 -14.3 6.3
14:35 1016 30 846 24.98 -7.1 19.1 55 -14.6 5.6
14:40 1016 30 846 24.98 -6.9 19.7 55 -14.5 5.9
14:45 1016 30 846 24.98 -6.6 20.1 53 -14.6 5.7
14:50 1016 30 846 24.98 -6.5 20.3 53 -14.6 5.8
14:55 1016 30 846 24.98 -6.7 20 54 -14.5 5.9
15:00 1016 30 846 24.98 -6.8 19.8 55 -14.5 5.9
15:05 1016 30 846 24.98 -6.9 19.6 54 -14.7 5.6
15:10 1017 30.03 846 24.98 -7.6 18.4 57 -14.7 5.6
15:15 1017 30.03 846 24.98 -7.1 19.2 55 -14.7 5.6
15:20 1017 30.03 846 24.98 -7.3 18.9 54 -15.1 4.8
15:25 1017 30.03 846 24.98 -7 19.3 54 -14.9 5.2
15:30 1016 30 846 24.98 -7 19.4 54 -14.8 5.4
15:35 1017 30.03 846 24.98 -6.8 19.8 54 -14.5 5.9
15:40 1017 30.03 846 24.98 -6.9 19.6 55 -14.6 5.7
15:45 1016 30 846 24.98 -7.1 19.2 54 -14.8 5.3
15:50 1017 30.03 846 24.98 -7.2 19.1 54 -14.9 5.1
15:55 1017 30.03 846 24.98 -7.2 19.1 55 -14.8 5.4
16:00 1017 30.03 846 24.98 -7.3 18.8 56 -14.8 5.4
16:05 1017 30.03 846 24.98 -7.7 18.1 59 -14.4 6.2
16:10 1017 30.03 846 24.98 -7.8 18 56 -15 4.9
16:15 1017 30.03 846 24.98 -7.3 18.8 56 -14.7 5.6
16:20 1017 30.03 846 24.98 -7.5 18.5 57 -14.6 5.8
16:25 1017 30.03 846 24.98 -8 17.7 60 -14.5 5.9
16:30 1017 30.03 846 24.98 -8.2 17.2 60 -14.6 5.7
16:35 1017 30.03 846 24.98 -8.3 17 62 -14.4 6.1
16:40 1017 30.03 846 24.98 -8.6 16.6 62 -14.6 5.8
16:45 1017 30.03 846 24.98 -8.7 16.4 63 -14.6 5.8
16:50 1017 30.03 846 24.98 -8.9 15.9 63 -14.7 5.5
16:55 1017 30.03 846 24.98 -9.5 14.9 65 -14.8 5.3
17:00 1017 30.03 846 24.98 -9.7 14.6 61 -15.8 3.6
17:05 1017 30.03 846 24.98 -9.8 14.4 66 -15 5.1
17:10 1017 30.03 846 24.98 -10 14.1 63 -15.8 3.6
17:15 1017 30.03 846 24.98 -10.1 13.9 62 -16.1 3
17:20 1017 30.03 846 24.98 -10.2 13.6 62 -16.3 2.7
17:25 1017 30.03 846 24.98 -10.4 13.2 62 -16.4 2.5
17:30 1017 30.03 846 24.98 -10.6 13 62 -16.5 2.3
17:35 1017 30.03 846 24.98 -10.7 12.8 61 -16.7 1.9
17:40 1017 30.03 846 24.98 -10.8 12.6 61 -16.9 1.5
17:45 1017 30.03 846 24.98 -10.8 12.6 60 -17 1.3
17:50 1017 30.03 846 24.98 -10.7 12.7 61 -16.9 1.5
17:55 1017 30.03 846 24.98 -10.8 12.6 60 -17 1.3
18:00 1017 30.03 846 24.98 -10.8 12.5 60 -17.1 1.3
18:05 1017 30.03 846 24.98 -11 12.2 60 -17.2 1
18:10 1017 30.03 846 24.98 -11 12.2 60 -17.3 0.9
18:15 1017 30.03 846 24.98 -11.1 12.1 61 -17.2 1
18:20 1017 30.03 846 24.98 -11.1 11.9 61 -17.3 0.8
18:25 1017 30.03 846 24.98 -11.2 11.9 60 -17.5 0.6
18:30 1017 30.03 846 24.98 -11.2 11.9 60 -17.4 0.6
18:35 1017 30.03 846 24.98 -11.3 11.7 61 -17.4 0.7
18:40 1017 30.03 846 24.98 -11.3 11.6 61 -17.5 0.4
18:45 1017 30.03 847 25.01 -11.4 11.4 61 -17.6 0.4
18:50 1017 30.03 847 25.01 -11.6 11.2 61 -17.6 0.3
18:55 1017 30.03 847 25.01 -11.7 11 62 -17.6 0.2
19:00 1017 30.03 847 25.01 -11.8 10.8 62 -17.6 0.3
19:05 1017 30.03 847 25.01 -11.9 10.6 63 -17.7 0.2
19:10 1017 30.03 847 25.01 -12 10.4 63 -17.7 0.2
19:15 1017 30.03 847 25.01 -12.1 10.3 63 -17.7 0.2
19:20 1017 30.03 846 24.98 -12.1 10.3 63 -17.8 0
19:25 1017 30.03 846 24.98 -12.1 10.3 62 -17.9 -0.2
19:30 1017 30.03 847 25.01 -12.1 10.2 63 -17.8 -0.1
19:35 1017 30.03 847 25.01 -12 10.3 62 -17.9 -0.1
19:40 1017 30.03 847 25.01 -12.1 10.2 63 -17.9 -0.1
19:45 1017 30.03 847 25.01 -12.1 10.2 63 -17.9 -0.1
19:50 1017 30.03 847 25.01 -12.1 10.2 63 -17.8 -0.1
19:55 1017 30.03 847 25.01 -12.2 10 63 -17.8 -0.1
20:00 1018 30.06 847 25.01 -12.3 9.8 64 -17.9 -0.2
20:05 1018 30.06 847 25.01 -12.4 9.8 64 -17.9 -0.3
20:10 1018 30.06 847 25.01 -12.3 9.8 63 -18 -0.3
20:15 1018 30.06 847 25.01 -12.4 9.6 62 -18.3 -0.9
20:20 1018 30.06 847 25.01 -12.5 9.5 62 -18.4 -1.1
20:25 1018 30.06 847 25.01 -12.5 9.6 61 -18.4 -1.2
20:30 1018 30.06 847 25.01 -12.5 9.6 62 -18.3 -1
20:35 1018 30.06 847 25.01 -12.4 9.6 62 -18.3 -1
20:40 1018 30.06 847 25.01 -12.4 9.7 61 -18.5 -1.3
20:45 1018 30.06 847 25.01 -12.5 9.4 61 -18.6 -1.4
20:50 1018 30.06 847 25.01 -12.6 9.2 62 -18.5 -1.3
20:55 1018 30.06 847 25.01 -12.6 9.2 61 -18.7 -1.6
21:00 1018 30.06 847 25.01 -12.7 9.1 61 -18.7 -1.6
21:05 1018 30.06 847 25.01 -12.7 9.1 61 -18.8 -1.9
21:10 1018 30.06 847 25.01 -12.8 9 60 -19 -2.3
21:15 1018 30.06 847 25.01 -12.8 9 60 -19.1 -2.3
21:20 1018 30.06 847 25.01 -12.8 8.9 60 -19 -2.3
21:25 1018 30.06 847 25.01 -12.9 8.8 60 -19.1 -2.4
21:30 1018 30.06 847 25.01 -12.8 8.9 60 -19 -2.3
21:35 1018 30.06 847 25.01 -12.8 8.9 60 -19 -2.2
21:40 1018 30.06 847 25.01 -12.8 8.9 60 -19 -2.3
21:45 1018 30.06 847 25.01 -12.9 8.8 60 -19.1 -2.4
21:50 1018 30.06 847 25.01 -12.9 8.7 60 -19.2 -2.6
21:55 1018 30.06 847 25.01 -12.9 8.7 59 -19.3 -2.7
22:00 1018 30.06 847 25.01 -13 8.6 60 -19.3 -2.8
22:05 1018 30.06 847 25.01 -13 8.6 60 -19.3 -2.8
22:10 1018 30.06 847 25.01 -13 8.5 59 -19.4 -3
22:15 1018 30.06 847 25.01 -13 8.5 59 -19.5 -3
22:20 1018 30.06 847 25.01 -13.1 8.4 59 -19.5 -3.1
22:25 1018 30.06 847 25.01 -13.1 8.4 59 -19.6 -3.2
22:30 1018 30.06 847 25.01 -13.2 8.3 59 -19.6 -3.3
22:35 1018 30.06 847 25.01 -13.2 8.3 59 -19.6 -3.3
22:40 1018 30.06 847 25.01 -13.1 8.4 60 -19.4 -3
22:45 1018 30.06 847 25.01 -13.1 8.4 59 -19.5 -3.1
22:50 1018 30.06 847 25.01 -13.2 8.3 60 -19.4 -3
22:55 1018 30.06 847 25.01 -13.2 8.2 60 -19.5 -3.1
23:00 1018 30.06 847 25.01 -13.3 8 60 -19.4 -3
23:05 1018 30.06 847 25.01 -13.4 7.9 61 -19.4 -3
23:10 1018 30.06 847 25.01 -13.4 7.9 61 -19.3 -2.8
23:15 1018 30.06 847 25.01 -13.4 7.9 61 -19.3 -2.8
23:20 1018 30.06 847 25.01 -13.4 8 62 -19.2 -2.6
23:25 1018 30.06 847 25.01 -13.4 8 62 -19.2 -2.5
23:30 1018 30.06 847 25.01 -13.4 7.9 62 -19.2 -2.6
23:35 1018 30.06 847 25.01 -13.4 8 62 -19.2 -2.6
23:40 1018 30.06 847 25.01 -13.4 8 62 -19.1 -2.4
23:45 1018 30.06 847 25.01 -13.4 7.8 63 -19.1 -2.4
23:50 1018 30.06 847 25.01 -13.5 7.8 63 -19.1 -2.4
23:55 1018 30.06 847 25.01 -13.6 7.6 63 -19.2 -2.6
24:00 1018 30.06 847 25.01 -13.6 7.5 63 -19.3 -2.7